createdAt,value
2022-11-10T00:02:09.394Z,100565.56
2022-11-10T00:04:37.153Z,100564.06
2022-11-10T00:07:06.508Z,100585.69
2022-11-10T00:09:34.299Z,100582.03
2022-11-10T00:12:02.047Z,100578.78
2022-11-10T00:14:47.307Z,100575.47
2022-11-10T00:17:15.014Z,100585.53
2022-11-10T00:19:42.718Z,100579.34
2022-11-10T00:22:11.811Z,100591.69
2022-11-10T00:24:39.541Z,100594.56
2022-11-10T00:27:07.248Z,100601.38
2022-11-10T00:29:35.899Z,100612.50
2022-11-10T00:32:03.671Z,100607.03
2022-11-10T00:34:31.443Z,100613.81
2022-11-10T00:36:59.308Z,100609.16
2022-11-10T00:39:28.419Z,100604.19
2022-11-10T00:41:56.243Z,100619.69
2022-11-10T00:44:24.002Z,100627.63
2022-11-10T00:46:51.758Z,100625.50
2022-11-10T00:49:19.580Z,100637.78
2022-11-10T00:51:47.342Z,100643.91
2022-11-10T00:54:15.132Z,100644.13
2022-11-10T00:56:44.233Z,100654.19
2022-11-10T00:59:11.980Z,100661.44
2022-11-10T01:01:39.714Z,100660.06
2022-11-10T01:04:07.906Z,100651.41
2022-11-10T01:06:35.702Z,100653.78
2022-11-10T01:09:03.742Z,100655.84
2022-11-10T01:11:31.467Z,100660.97
2022-11-10T01:14:00.520Z,100663.16
2022-11-10T01:16:31.381Z,100662.75
2022-11-10T01:19:00.916Z,100657.31
2022-11-10T01:21:30.277Z,100664.22
2022-11-10T01:23:58.563Z,100667.28
2022-11-10T01:26:26.597Z,100685.19
2022-11-10T01:28:54.311Z,100679.25
2022-11-10T01:31:23.878Z,100673.72
2022-11-10T01:33:51.611Z,100687.03
2022-11-10T01:36:19.461Z,100690.81
2022-11-10T01:38:47.290Z,100702.91
2022-11-10T01:41:15.857Z,100701.75
2022-11-10T01:43:43.857Z,100706.75
2022-11-10T01:46:12.815Z,100716.84
2022-11-10T01:48:45.645Z,100709.94
2022-11-10T01:51:17.206Z,100720.69
2022-11-10T01:53:49.149Z,100724.16
2022-11-10T01:56:17.493Z,100732.03
2022-11-10T01:58:54.917Z,100730.44
2022-11-10T02:01:23.593Z,100733.59
2022-11-10T02:03:56.884Z,100739.50
2022-11-10T02:06:27.942Z,100747.00
2022-11-10T02:08:58.403Z,100754.81
2022-11-10T02:11:26.552Z,100750.50
2022-11-10T02:13:54.730Z,100753.56
2022-11-10T02:16:22.836Z,100769.03
2022-11-10T02:18:51.999Z,100760.88
2022-11-10T02:21:21.907Z,100776.22
2022-11-10T02:23:51.429Z,100769.63
2022-11-10T02:26:23.966Z,100769.72
2022-11-10T02:28:51.755Z,100762.31
2022-11-10T02:31:19.550Z,100776.53
2022-11-10T02:33:47.264Z,100773.88
2022-11-10T02:36:15.057Z,100796.63
2022-11-10T02:38:44.109Z,100789.25
2022-11-10T02:41:11.867Z,100798.19
2022-11-10T02:43:40.206Z,100793.91
2022-11-10T02:46:08.099Z,100794.94
2022-11-10T02:48:35.823Z,100805.91
2022-11-10T02:51:03.557Z,100798.81
2022-11-10T02:53:37.109Z,100810.19
2022-11-10T02:56:06.952Z,100814.66
2022-11-10T02:58:34.631Z,100801.09
2022-11-10T03:01:05.824Z,100821.94
2022-11-10T03:03:34.024Z,100808.34
2022-11-10T03:06:01.779Z,100813.03
2022-11-10T03:08:29.545Z,100829.59
2022-11-10T03:10:57.817Z,100834.34
2022-11-10T03:13:35.700Z,100858.34
2022-11-10T03:16:15.088Z,100864.50
2022-11-10T03:18:42.833Z,100870.56
2022-11-10T03:21:11.059Z,100893.69
2022-11-10T03:23:38.825Z,100916.06
2022-11-10T03:26:07.266Z,100921.50
2022-11-10T03:28:36.407Z,100958.22
2022-11-10T03:31:04.104Z,100981.50
2022-11-10T03:33:31.855Z,101007.03
2022-11-10T03:35:59.639Z,101027.41
2022-11-10T03:38:27.376Z,101077.19
2022-11-10T03:41:18.316Z,101118.06
2022-11-10T03:43:44.139Z,101166.59
2022-11-10T03:46:11.865Z,101207.50
2022-11-10T03:48:39.639Z,101221.97
2022-11-10T03:51:07.746Z,101265.56
2022-11-10T03:53:35.509Z,101314.28
2022-11-10T03:56:06.550Z,101317.78
2022-11-10T03:58:34.250Z,101326.91
2022-11-10T04:01:03.359Z,101361.81
2022-11-10T04:03:31.122Z,101375.31
2022-11-10T04:06:16.483Z,101395.72
2022-11-10T04:09:02.440Z,101418.63
2022-11-10T04:11:48.748Z,101413.38
2022-11-10T04:14:34.453Z,101426.91
2022-11-10T04:17:04.153Z,101451.97
2022-11-10T04:19:32.866Z,101464.31
2022-11-10T04:22:00.663Z,101468.72
2022-11-10T04:24:28.379Z,101471.09
2022-11-10T04:26:56.082Z,101457.78
2022-11-10T04:29:23.795Z,101470.25
2022-11-10T04:31:51.517Z,101460.69
2022-11-10T04:34:20.575Z,101470.34
2022-11-10T04:36:48.310Z,101508.19
2022-11-10T04:39:16.006Z,101475.31
2022-11-10T04:41:43.773Z,101481.44
2022-11-10T04:44:11.478Z,101480.16
2022-11-10T04:46:40.777Z,101491.91
2022-11-10T04:49:09.063Z,101510.00
2022-11-10T04:51:40.067Z,101507.78
2022-11-10T04:54:08.627Z,101515.38
2022-11-10T04:56:37.150Z,101512.38
2022-11-10T04:59:04.889Z,101531.59
2022-11-10T05:01:32.897Z,101527.28
2022-11-10T05:04:01.141Z,101527.06
2022-11-10T05:06:29.035Z,101539.47
2022-11-10T05:08:58.211Z,101540.13
2022-11-10T05:11:26.024Z,101532.34
2022-11-10T05:13:53.755Z,101534.00
2022-11-10T05:16:21.474Z,101535.66
2022-11-10T05:18:53.988Z,101531.13
2022-11-10T05:21:21.834Z,101534.69
2022-11-10T05:23:49.570Z,101549.84
2022-11-10T05:26:19.701Z,101561.69
2022-11-10T05:28:47.745Z,101574.34
2022-11-10T05:31:15.525Z,101577.06
2022-11-10T05:33:43.233Z,101570.44
2022-11-10T05:36:11.646Z,101569.09
2022-11-10T05:38:43.541Z,101582.88
2022-11-10T05:41:11.824Z,101597.91
2022-11-10T05:43:40.943Z,101604.78
2022-11-10T05:46:08.779Z,101615.69
2022-11-10T05:48:36.478Z,101604.19
2022-11-10T05:51:04.424Z,101594.28
2022-11-10T05:53:32.213Z,101598.88
2022-11-10T05:55:59.939Z,101601.25
2022-11-10T05:58:27.779Z,101610.19
2022-11-10T06:00:59.166Z,101637.19
2022-11-10T06:03:27.358Z,101655.09
2022-11-10T06:05:55.477Z,101650.41
2022-11-10T06:08:23.187Z,101670.28
2022-11-10T06:10:50.939Z,101685.31
2022-11-10T06:13:18.860Z,101680.16
2022-11-10T06:15:50.439Z,101692.19
2022-11-10T06:18:19.881Z,101689.91
2022-11-10T06:20:47.822Z,101690.41
2022-11-10T06:23:15.686Z,101683.41
2022-11-10T06:25:44.624Z,101688.19
2022-11-10T06:28:12.865Z,101705.31
2022-11-10T06:30:40.617Z,101701.44
2022-11-10T06:33:08.319Z,101700.00
2022-11-10T06:35:37.529Z,101697.22
2022-11-10T06:38:06.993Z,101706.75
2022-11-10T06:40:35.133Z,101717.34
2022-11-10T06:43:03.149Z,101722.03
2022-11-10T06:45:30.948Z,101731.44
2022-11-10T06:48:02.512Z,101738.78
2022-11-10T06:50:30.393Z,101737.56
2022-11-10T06:53:01.275Z,101729.88
2022-11-10T06:55:29.505Z,101739.09
2022-11-10T06:57:57.580Z,101749.94
2022-11-10T07:00:26.894Z,101748.28
2022-11-10T07:03:05.435Z,101763.78
2022-11-10T07:05:35.326Z,101750.59
2022-11-10T07:08:05.271Z,101751.91
2022-11-10T07:10:33.714Z,101741.91
2022-11-10T07:13:03.302Z,101736.13
2022-11-10T07:15:31.478Z,101753.97
2022-11-10T07:17:59.316Z,101739.88
2022-11-10T07:20:28.394Z,101745.56
2022-11-10T07:22:59.201Z,101737.72
2022-11-10T07:25:28.830Z,101698.31
2022-11-10T07:27:57.401Z,101690.78
2022-11-10T07:30:25.303Z,101672.44
2022-11-10T07:32:59.947Z,101635.88
2022-11-10T07:35:30.741Z,101590.31
2022-11-10T07:37:59.318Z,101572.31
2022-11-10T07:40:28.473Z,101556.34
2022-11-10T07:42:56.177Z,101577.69
2022-11-10T07:45:24.308Z,101613.09
2022-11-10T07:47:52.092Z,101649.88
2022-11-10T07:50:20.132Z,101665.63
2022-11-10T07:52:47.927Z,101673.16
2022-11-10T07:55:15.743Z,101702.88
2022-11-10T07:57:44.812Z,101704.19
2022-11-10T08:00:13.671Z,101684.22
2022-11-10T08:02:41.447Z,101679.94
2022-11-10T08:05:10.041Z,101717.94
2022-11-10T08:07:37.850Z,101745.19
2022-11-10T08:10:06.348Z,101755.88
2022-11-10T08:12:34.060Z,101788.06
2022-11-10T08:15:03.162Z,101768.38
2022-11-10T08:17:30.889Z,101783.50
2022-11-10T08:19:58.636Z,101757.47
2022-11-10T08:22:26.748Z,101751.91
2022-11-10T08:24:54.449Z,101736.97
2022-11-10T08:27:22.668Z,101727.81
2022-11-10T08:29:50.390Z,101714.41
2022-11-10T08:32:19.624Z,101700.09
2022-11-10T08:34:47.324Z,101677.50
2022-11-10T08:37:15.031Z,101642.91
2022-11-10T08:39:42.744Z,101612.44
2022-11-10T08:42:10.425Z,101609.03
2022-11-10T08:44:38.215Z,101615.31
2022-11-10T08:47:06.020Z,101640.19
2022-11-10T08:49:35.091Z,101646.31
2022-11-10T08:52:02.889Z,101610.00
2022-11-10T08:54:30.585Z,101635.25
2022-11-10T08:56:58.293Z,101624.19
2022-11-10T08:59:26.191Z,101599.09
2022-11-10T09:01:53.884Z,101599.53
2022-11-10T09:04:21.680Z,101584.28
2022-11-10T09:06:50.810Z,101574.91
2022-11-10T09:09:18.805Z,101588.59
2022-11-10T09:11:46.516Z,101537.56
2022-11-10T09:14:15.877Z,101513.44
2022-11-10T09:16:43.567Z,101451.88
2022-11-10T09:19:14.310Z,101422.91
2022-11-10T09:21:46.279Z,101394.44
2022-11-10T09:24:15.448Z,101375.41
2022-11-10T09:26:45.242Z,101386.19
2022-11-10T09:29:13.105Z,101372.69
2022-11-10T09:31:40.865Z,101392.13
2022-11-10T09:34:08.620Z,101438.47
2022-11-10T09:36:40.354Z,101434.53
2022-11-10T09:39:08.179Z,101146.25
2022-11-10T09:41:40.404Z,101391.44
2022-11-10T09:44:15.793Z,101518.44
2022-11-10T09:46:47.097Z,101527.25
2022-11-10T09:49:30.841Z,101571.22
2022-11-10T09:52:00.240Z,101544.31
2022-11-10T09:54:36.937Z,101513.72
2022-11-10T09:57:08.533Z,101460.25
2022-11-10T09:59:37.412Z,101517.47
2022-11-10T10:02:14.242Z,101560.13
2022-11-10T10:05:04.687Z,101622.31
2022-11-10T10:07:43.469Z,101654.75
2022-11-10T10:10:17.780Z,101680.13
2022-11-10T10:13:06.886Z,101655.63
2022-11-10T10:15:45.007Z,101552.94
2022-11-10T10:18:27.388Z,101546.84
2022-11-10T10:21:07.106Z,101517.72
2022-11-10T10:26:29.044Z,101484.72
2022-11-10T10:29:02.338Z,101446.50
2022-11-10T10:31:35.531Z,101437.66
2022-11-10T10:34:05.113Z,101437.19
2022-11-10T10:36:32.887Z,101439.22
2022-11-10T10:39:03.957Z,101425.50
2022-11-10T10:41:33.518Z,101412.56
2022-11-10T10:44:04.032Z,101416.69
2022-11-10T10:46:35.762Z,101442.59
2022-11-10T10:49:27.991Z,101433.69
2022-11-10T10:52:08.049Z,101437.50
2022-11-10T10:54:37.045Z,101447.19
2022-11-10T10:57:07.971Z,101439.22
2022-11-10T10:59:37.047Z,101438.97
2022-11-10T11:02:04.771Z,101444.44
2022-11-10T11:04:34.966Z,101446.00
2022-11-10T11:07:04.794Z,101463.06
2022-11-10T11:09:42.038Z,101473.13
2022-11-10T11:12:12.776Z,101475.22
2022-11-10T11:14:45.805Z,101472.22
2022-11-10T11:17:19.004Z,101470.69
2022-11-10T11:19:46.942Z,101482.06
2022-11-10T11:22:49.883Z,101468.75
2022-11-10T11:25:24.101Z,101530.94
2022-11-10T11:28:00.726Z,101501.28
2022-11-10T11:30:43.690Z,101506.00
2022-11-10T11:33:22.918Z,101484.78
2022-11-10T11:35:57.323Z,101477.00
2022-11-10T11:38:32.507Z,101461.66
2022-11-10T11:41:14.216Z,101475.41
2022-11-10T11:44:06.343Z,101539.38
2022-11-10T11:46:48.952Z,101579.78
2022-11-10T11:49:37.376Z,101587.41
2022-11-10T11:52:12.663Z,101624.97
2022-11-10T11:54:57.878Z,101595.16
2022-11-10T11:57:40.383Z,101546.50
2022-11-10T12:00:11.674Z,101527.63
2022-11-10T12:03:23.358Z,101532.19
2022-11-10T12:06:06.344Z,101540.97
2022-11-10T12:08:41.653Z,101525.22
2022-11-10T12:11:21.285Z,101518.47
2022-11-10T12:14:01.093Z,101506.56
2022-11-10T12:16:31.714Z,101500.44
2022-11-10T12:19:14.177Z,101504.00
2022-11-10T12:21:49.894Z,101512.47
2022-11-10T12:24:39.411Z,101490.88
2022-11-10T12:27:15.434Z,101511.63
2022-11-10T12:29:47.413Z,101519.59
2022-11-10T12:32:20.397Z,101513.66
2022-11-10T12:34:54.279Z,101500.41
2022-11-10T12:37:29.429Z,101526.88
2022-11-10T12:40:02.878Z,101504.03
2022-11-10T12:42:33.794Z,101515.19
2022-11-10T12:45:03.549Z,101504.44
2022-11-10T12:47:39.025Z,101497.88
2022-11-10T12:50:26.865Z,101503.47
2022-11-10T12:52:58.478Z,101508.50
2022-11-10T12:55:35.905Z,101518.06
2022-11-10T12:58:06.207Z,101508.50
2022-11-10T13:00:40.667Z,101516.28
2022-11-10T13:03:26.416Z,101518.00
2022-11-10T13:06:01.516Z,101529.41
2022-11-10T13:08:36.073Z,101525.34
2022-11-10T13:11:08.517Z,101535.75
2022-11-10T13:13:45.478Z,101536.88
2022-11-10T13:16:54.142Z,101535.66
2022-11-10T13:19:51.133Z,101522.53
2022-11-10T13:22:40.818Z,101521.09
2022-11-10T13:25:47.027Z,101517.31
2022-11-10T13:28:14.789Z,101502.50
2022-11-10T13:30:45.542Z,101514.25
2022-11-10T13:33:36.048Z,101524.06
2022-11-10T13:36:04.175Z,101522.22
2022-11-10T13:38:39.069Z,101522.25
2022-11-10T13:41:24.773Z,101527.34
2022-11-10T13:43:54.233Z,101534.94
2022-11-10T13:46:32.040Z,101544.69
2022-11-10T13:49:35.925Z,101566.00
2022-11-10T13:52:11.400Z,101581.94
2022-11-10T13:55:02.953Z,101576.69
2022-11-10T13:57:36.216Z,101575.56
2022-11-10T14:00:24.956Z,101579.81
2022-11-10T14:02:55.589Z,101612.00
2022-11-10T14:06:03.322Z,101592.53
2022-11-10T14:08:38.770Z,101616.06
2022-11-10T14:11:14.672Z,101599.56
2022-11-10T14:13:45.885Z,101599.81
2022-11-10T14:16:18.513Z,101600.25
2022-11-10T14:18:56.445Z,101603.31
2022-11-10T14:21:29.503Z,101614.94
2022-11-10T14:24:04.045Z,101616.63
2022-11-10T14:26:37.971Z,101606.81
2022-11-10T14:29:38.445Z,101637.09
2022-11-10T14:32:13.838Z,101609.63
2022-11-10T14:34:47.836Z,101610.69
2022-11-10T14:37:22.778Z,101622.94
2022-11-10T14:39:53.718Z,101612.09
2022-11-10T14:42:25.663Z,101626.69
2022-11-10T14:45:07.245Z,101631.16
2022-11-10T14:47:35.926Z,101624.59
2022-11-10T14:50:18.717Z,101620.41
2022-11-10T14:52:48.656Z,101613.34
2022-11-10T14:55:20.535Z,101624.16
2022-11-10T14:57:52.804Z,101617.56
2022-11-10T15:00:26.257Z,101624.41
2022-11-10T15:02:56.699Z,101616.63
2022-11-10T15:05:25.585Z,101614.22
2022-11-10T15:07:55.928Z,101615.91
2022-11-10T15:10:27.371Z,101621.66
2022-11-10T15:13:05.598Z,101614.91
2022-11-10T15:15:33.469Z,101615.34
2022-11-10T15:18:01.169Z,101623.78
2022-11-10T15:20:40.599Z,101622.63
2022-11-10T15:23:22.045Z,101621.81
2022-11-10T15:25:53.207Z,101622.50
2022-11-10T15:28:30.590Z,101622.97
2022-11-10T15:31:00.785Z,101635.09
2022-11-10T15:33:32.184Z,101631.03
2022-11-10T15:36:16.159Z,101640.97
2022-11-10T15:38:44.247Z,101642.25
2022-11-10T15:41:16.899Z,101640.72
2022-11-10T15:43:45.987Z,101633.72
2022-11-10T15:46:19.469Z,101631.91
2022-11-10T15:48:49.618Z,101633.44
2022-11-10T15:51:25.623Z,101620.22
2022-11-10T15:53:54.772Z,101627.91
2022-11-10T15:56:24.939Z,101638.91
2022-11-10T15:59:00.594Z,101630.22
2022-11-10T16:01:29.850Z,101656.94
2022-11-10T16:03:57.761Z,101660.16
2022-11-10T16:06:25.465Z,101660.31
2022-11-10T16:08:53.383Z,101675.88
2022-11-10T16:11:22.614Z,101682.19
2022-11-10T16:13:52.935Z,101671.69
2022-11-10T16:16:23.994Z,101677.97
2022-11-10T16:18:52.241Z,101676.44
2022-11-10T16:21:22.161Z,101676.88
2022-11-10T16:23:50.511Z,101658.63
2022-11-10T16:26:22.439Z,101665.19
2022-11-10T16:28:51.851Z,101668.00
2022-11-10T16:31:22.532Z,101674.03
2022-11-10T16:33:51.674Z,101682.16
2022-11-10T16:36:25.297Z,101682.09
2022-11-10T16:38:54.051Z,101695.50
2022-11-10T16:41:21.963Z,101699.84
2022-11-10T16:43:50.108Z,101693.38
2022-11-10T16:46:20.857Z,101689.75
2022-11-10T16:48:49.633Z,101682.31
2022-11-10T16:51:18.989Z,101683.25
2022-11-10T16:53:46.916Z,101693.25
2022-11-10T16:56:15.624Z,101693.25
2022-11-10T16:58:43.484Z,101690.84
2022-11-10T17:01:19.416Z,101710.03
2022-11-10T17:03:49.813Z,101712.47
2022-11-10T17:06:21.559Z,101709.03
2022-11-10T17:08:51.248Z,101705.00
2022-11-10T17:11:19.009Z,101707.81
2022-11-10T17:13:46.910Z,101708.50
2022-11-10T17:16:21.864Z,101712.03
2022-11-10T17:18:50.633Z,101702.06
2022-11-10T17:21:21.176Z,101698.56
2022-11-10T17:23:49.018Z,101697.56
2022-11-10T17:26:19.200Z,101703.47
2022-11-10T17:28:47.068Z,101703.50
2022-11-10T17:31:15.794Z,101701.50
2022-11-10T17:33:43.543Z,101712.22
2022-11-10T17:36:15.447Z,101730.78
2022-11-10T17:38:45.022Z,101709.34
2022-11-10T17:41:16.315Z,101718.56
2022-11-10T17:43:45.921Z,101732.97
2022-11-10T17:46:17.269Z,101734.69
2022-11-10T17:48:46.884Z,101729.66
2022-11-10T17:51:19.245Z,101751.25
2022-11-10T17:53:50.548Z,101749.53
2022-11-10T17:56:18.820Z,101763.59
2022-11-10T17:58:46.575Z,101766.66
2022-11-10T18:01:19.598Z,101781.06
2022-11-10T18:03:47.821Z,101785.84
2022-11-10T18:06:16.055Z,101798.13
2022-11-10T18:08:44.428Z,101800.38
2022-11-10T18:11:16.224Z,101793.84
2022-11-10T18:13:44.517Z,101780.22
2022-11-10T18:16:13.896Z,101784.44
2022-11-10T18:18:42.266Z,101771.53
2022-11-10T18:21:11.153Z,101765.94
2022-11-10T18:23:39.103Z,101777.94
2022-11-10T18:26:08.405Z,101786.25
2022-11-10T18:28:37.472Z,101769.16
2022-11-10T18:31:09.394Z,101785.81
2022-11-10T18:33:37.137Z,101786.94
2022-11-10T18:36:05.524Z,101791.59
2022-11-10T18:38:33.262Z,101784.44
2022-11-10T18:41:24.589Z,101777.31
2022-11-10T18:43:53.864Z,101776.44
2022-11-10T18:46:21.667Z,101782.44
2022-11-10T18:48:49.423Z,101787.81
2022-11-10T18:51:17.684Z,101791.47
2022-11-10T18:53:45.417Z,101809.25
2022-11-10T18:56:14.353Z,101799.28
2022-11-10T18:58:42.338Z,101799.72
2022-11-10T19:01:12.216Z,101801.34
2022-11-10T19:03:40.048Z,101825.38
2022-11-10T19:06:08.283Z,101815.31
2022-11-10T19:08:36.666Z,101804.06
2022-11-10T19:11:07.099Z,101825.25
2022-11-10T19:13:34.884Z,101822.72
2022-11-10T19:16:04.998Z,101801.16
2022-11-10T19:18:34.591Z,101818.78
2022-11-10T19:21:06.473Z,101823.72
2022-11-10T19:23:34.253Z,101814.31
2022-11-10T19:26:02.139Z,101841.91
2022-11-10T19:28:30.444Z,101846.41
2022-11-10T19:31:01.436Z,101841.53
2022-11-10T19:33:30.533Z,101857.63
2022-11-10T19:36:03.264Z,101849.38
2022-11-10T19:38:31.445Z,101865.91
2022-11-10T19:41:00.112Z,101845.16
2022-11-10T19:43:30.827Z,101852.59
2022-11-10T19:46:02.423Z,101864.81
2022-11-10T19:48:31.131Z,101845.28
2022-11-10T19:51:01.112Z,101859.63
2022-11-10T19:53:29.743Z,101862.84
2022-11-10T19:56:01.883Z,101859.44
2022-11-10T19:58:30.176Z,101862.44
2022-11-10T20:01:00.110Z,101862.56
2022-11-10T20:03:32.549Z,101855.84
2022-11-10T20:06:04.293Z,101851.91
2022-11-10T20:08:32.589Z,101862.84
2022-11-10T20:11:01.886Z,101865.66
2022-11-10T20:13:30.491Z,101869.31
2022-11-10T20:15:58.607Z,101871.09
2022-11-10T20:18:26.591Z,101878.00
2022-11-10T20:20:54.665Z,101894.13
2022-11-10T20:23:24.310Z,101876.59
2022-11-10T20:26:02.668Z,101875.03
2022-11-10T20:28:30.743Z,101886.25
2022-11-10T20:30:59.818Z,101870.28
2022-11-10T20:33:28.419Z,101892.56
2022-11-10T20:35:56.251Z,101892.88
2022-11-10T20:38:25.551Z,101882.19
2022-11-10T20:41:02.818Z,101892.88
2022-11-10T20:43:30.944Z,101895.81
2022-11-10T20:45:58.931Z,101878.41
2022-11-10T20:48:26.750Z,101894.53
2022-11-10T20:50:54.653Z,101889.34
2022-11-10T20:53:22.715Z,101874.91
2022-11-10T20:55:57.703Z,101857.44
2022-11-10T20:58:26.642Z,101870.84
2022-11-10T21:00:54.624Z,101898.47
2022-11-10T21:03:23.578Z,101880.09
2022-11-10T21:05:55.344Z,101895.53
2022-11-10T21:08:23.829Z,101889.50
2022-11-10T21:10:54.413Z,101878.53
2022-11-10T21:13:24.062Z,101876.31
2022-11-10T21:15:53.612Z,101866.34
2022-11-10T21:18:22.248Z,101868.16
2022-11-10T21:20:51.424Z,101886.84
2022-11-10T21:23:19.293Z,101880.94
2022-11-10T21:25:55.521Z,101901.31
2022-11-10T21:28:23.373Z,101885.16
2022-11-10T21:30:51.636Z,101909.84
2022-11-10T21:33:19.441Z,101898.63
2022-11-10T21:35:47.205Z,101894.25
2022-11-10T21:38:15.179Z,101891.03
2022-11-10T21:40:43.114Z,101875.75
2022-11-10T21:43:12.256Z,101894.69
2022-11-10T21:45:39.999Z,101901.69
2022-11-10T21:48:10.946Z,101902.25
2022-11-10T21:50:38.719Z,101887.13
2022-11-10T21:53:07.994Z,101873.22
2022-11-10T21:55:35.841Z,101915.00
2022-11-10T21:58:03.529Z,101895.13
2022-11-10T22:00:32.701Z,101894.00
2022-11-10T22:03:01.274Z,101910.41
2022-11-10T22:05:29.552Z,101891.03
2022-11-10T22:07:57.334Z,101891.03
2022-11-10T22:10:42.795Z,101894.84
2022-11-10T22:13:33.674Z,101903.66
2022-11-10T22:16:20.245Z,101906.19
2022-11-10T22:18:48.383Z,101887.81
2022-11-10T22:21:16.075Z,101877.97
2022-11-10T22:24:01.375Z,101885.44
2022-11-10T22:26:29.087Z,101889.22
2022-11-10T22:28:56.861Z,101867.03
2022-11-10T22:31:25.999Z,101876.00
2022-11-10T22:33:53.699Z,101861.72
2022-11-10T22:36:22.120Z,101853.59
2022-11-10T22:38:50.321Z,101841.38
2022-11-10T22:41:35.839Z,101845.44
2022-11-10T22:44:06.683Z,101863.53
2022-11-10T22:46:37.668Z,101885.97
2022-11-10T22:49:07.874Z,101888.50
2022-11-10T22:51:35.968Z,101885.56
2022-11-10T22:54:04.863Z,101882.31
2022-11-10T22:56:34.150Z,101892.44
2022-11-10T22:59:01.919Z,101902.97
2022-11-10T23:01:29.961Z,101887.41
2022-11-10T23:03:59.886Z,101906.59
2022-11-10T23:06:28.082Z,101918.09
2022-11-10T23:08:56.210Z,101911.22
2022-11-10T23:11:27.503Z,101923.84
2022-11-10T23:13:55.630Z,101937.88
2022-11-10T23:16:26.129Z,101944.19
2022-11-10T23:18:55.322Z,101962.34
2022-11-10T23:21:26.206Z,101929.19
2022-11-10T23:23:54.611Z,101939.13
2022-11-10T23:26:24.233Z,101927.78
2022-11-10T23:28:52.962Z,101927.22
2022-11-10T23:31:22.517Z,101935.06
2022-11-10T23:33:52.487Z,101938.56
2022-11-10T23:36:21.721Z,101927.63
2022-11-10T23:38:50.810Z,101908.56
2022-11-10T23:41:20.363Z,101920.03
2022-11-10T23:43:48.518Z,101932.81
2022-11-10T23:46:16.479Z,101929.22
2022-11-10T23:48:44.569Z,101909.13
2022-11-10T23:51:14.320Z,101925.66
2022-11-10T23:53:42.416Z,101947.66
2022-11-10T23:56:13.317Z,101939.66
2022-11-10T23:58:41.289Z,101947.13
